ADY15 OMAA-OBBI
Flight info
| Callsign | ADY15 |
|---|---|
| Flight time | 1h 4m |
| Altitude | 26000 |
| Route | OMAA/31L N0398F260 BOSE1K BOSEV N563 IMGUX P699 ORMID Y856 ALKAN/N0350F180 Y856 SOLOB/N0340F160 Y856 ORDIG ORDIG1 OBBI/12L |
| Aircraft | A320/M-SDE3FGHIRWY/LB1 |
Departure
| Time | 2026-04-27 17:03 |
|---|---|
| Airport | Zayed International Airport (OMAA) |
Arrival
| Time | 2026-04-27 18:07 |
|---|---|
| Airport | Bahrain International Airport (OBBI) |
| Time | Latitude | Longitude | Altitude | Speed | Heading |
|---|---|---|---|---|---|
| 2026-04-27 16:42 | 24.44484 | 54.64538 | 65 ft | 0 kts | 307° |
| 2026-04-27 16:46 | 24.44483 | 54.64539 | 66 ft | 2 kts | 307° |
| 2026-04-27 16:46 | 24.44473 | 54.64554 | 92 ft | 2 kts | 308° |
| 2026-04-27 16:47 | 24.44463 | 54.64568 | 92 ft | 2 kts | 308° |
| 2026-04-27 16:47 | 24.44453 | 54.64582 | 92 ft | 2 kts | 308° |
| 2026-04-27 16:47 | 24.44443 | 54.64597 | 91 ft | 2 kts | 308° |
| 2026-04-27 16:47 | 24.44432 | 54.64611 | 92 ft | 2 kts | 292° |
| 2026-04-27 16:48 | 24.44430 | 54.64628 | 91 ft | 2 kts | 233° |
| 2026-04-27 16:48 | 24.44442 | 54.64641 | 93 ft | 2 kts | 217° |
| 2026-04-27 16:48 | 24.44450 | 54.64648 | 92 ft | 0 kts | 218° |
| 2026-04-27 16:51 | 24.44440 | 54.64640 | 92 ft | 6 kts | 218° |
| 2026-04-27 16:51 | 24.44390 | 54.64596 | 92 ft | 10 kts | 218° |
| 2026-04-27 16:52 | 24.44341 | 54.64554 | 92 ft | 8 kts | 218° |
| 2026-04-27 16:52 | 24.44298 | 54.64517 | 92 ft | 9 kts | 218° |
| 2026-04-27 16:52 | 24.44266 | 54.64441 | 93 ft | 13 kts | 262° |
| 2026-04-27 16:52 | 24.44210 | 54.64373 | 92 ft | 12 kts | 213° |
| 2026-04-27 16:53 | 24.44140 | 54.64410 | 92 ft | 15 kts | 127° |
| 2026-04-27 16:53 | 24.44076 | 54.64500 | 94 ft | 14 kts | 128° |
| 2026-04-27 16:53 | 24.44018 | 54.64580 | 94 ft | 13 kts | 128° |
| 2026-04-27 16:53 | 24.43967 | 54.64652 | 91 ft | 11 kts | 128° |
| 2026-04-27 16:54 | 24.43905 | 54.64739 | 94 ft | 19 kts | 128° |
| 2026-04-27 16:54 | 24.43815 | 54.64866 | 91 ft | 21 kts | 127° |
| 2026-04-27 16:54 | 24.43728 | 54.64991 | 91 ft | 20 kts | 128° |
| 2026-04-27 16:54 | 24.43647 | 54.65104 | 91 ft | 18 kts | 128° |
| 2026-04-27 16:55 | 24.43572 | 54.65208 | 92 ft | 20 kts | 128° |
| 2026-04-27 16:55 | 24.43472 | 54.65351 | 92 ft | 26 kts | 128° |
| 2026-04-27 16:55 | 24.43359 | 54.65508 | 93 ft | 26 kts | 128° |
| 2026-04-27 16:55 | 24.43253 | 54.65657 | 92 ft | 24 kts | 128° |
| 2026-04-27 16:56 | 24.43157 | 54.65793 | 92 ft | 17 kts | 127° |
| 2026-04-27 16:56 | 24.43088 | 54.65889 | 92 ft | 14 kts | 128° |
| 2026-04-27 16:56 | 24.43016 | 54.65894 | 91 ft | 11 kts | 216° |
| 2026-04-27 16:56 | 24.42956 | 54.65914 | 91 ft | 9 kts | 129° |
| 2026-04-27 16:57 | 24.42913 | 54.65975 | 91 ft | 13 kts | 128° |
| 2026-04-27 16:57 | 24.42853 | 54.66059 | 91 ft | 13 kts | 128° |
| 2026-04-27 16:57 | 24.42801 | 54.66132 | 92 ft | 11 kts | 128° |
| 2026-04-27 16:57 | 24.42761 | 54.66190 | 92 ft | 7 kts | 128° |
| 2026-04-27 16:58 | 24.42725 | 54.66205 | 92 ft | 0 kts | 192° |
| 2026-04-27 16:59 | 24.42713 | 54.66200 | 92 ft | 6 kts | 202° |
| 2026-04-27 16:59 | 24.42666 | 54.66161 | 92 ft | 5 kts | 219° |
| 2026-04-27 17:00 | 24.42628 | 54.66129 | 93 ft | 5 kts | 218° |
| 2026-04-27 17:00 | 24.42614 | 54.66095 | 94 ft | 5 kts | 276° |
| 2026-04-27 17:00 | 24.42629 | 54.66071 | 94 ft | 0 kts | 308° |
| 2026-04-27 17:02 | 24.42759 | 54.65889 | 91 ft | 66 kts | 308° |
| 2026-04-27 17:02 | 24.43172 | 54.65310 | 93 ft | 124 kts | 308° |
| 2026-04-27 17:02 | 24.43817 | 54.64402 | 105 ft | 170 kts | 308° |
| 2026-04-27 17:02 | 24.44546 | 54.63382 | 679 ft | 169 kts | 307° |
| 2026-04-27 17:03 | 24.45267 | 54.62360 | 1240 ft | 169 kts | 309° |
| 2026-04-27 17:03 | 24.46001 | 54.61313 | 1685 ft | 183 kts | 310° |
| 2026-04-27 17:03 | 24.46840 | 54.60136 | 1947 ft | 206 kts | 311° |
| 2026-04-27 17:03 | 24.47774 | 54.58827 | 2273 ft | 229 kts | 310° |
| 2026-04-27 17:04 | 24.48805 | 54.57378 | 2639 ft | 250 kts | 309° |
| 2026-04-27 17:04 | 24.49888 | 54.55850 | 3301 ft | 257 kts | 309° |
| 2026-04-27 17:04 | 24.50989 | 54.54294 | 4099 ft | 259 kts | 309° |
| 2026-04-27 17:04 | 24.52101 | 54.52721 | 4947 ft | 262 kts | 308° |
| 2026-04-27 17:05 | 24.53224 | 54.51137 | 5749 ft | 264 kts | 308° |
| 2026-04-27 17:05 | 24.54353 | 54.49542 | 6518 ft | 266 kts | 307° |
| 2026-04-27 17:05 | 24.55495 | 54.47924 | 7253 ft | 269 kts | 307° |
| 2026-04-27 17:05 | 24.56649 | 54.46287 | 7965 ft | 273 kts | 307° |
| 2026-04-27 17:06 | 24.57822 | 54.44623 | 8672 ft | 278 kts | 307° |
| 2026-04-27 17:06 | 24.59020 | 54.42929 | 9012 ft | 282 kts | 307° |
| 2026-04-27 17:06 | 24.60226 | 54.41222 | 9769 ft | 284 kts | 307° |
| 2026-04-27 17:06 | 24.61447 | 54.39493 | 10450 ft | 287 kts | 307° |
| 2026-04-27 17:07 | 24.62679 | 54.37753 | 11104 ft | 290 kts | 307° |
| 2026-04-27 17:07 | 24.63928 | 54.35991 | 11756 ft | 295 kts | 307° |
| 2026-04-27 17:07 | 24.65238 | 54.34145 | 11933 ft | 317 kts | 307° |
| 2026-04-27 17:07 | 24.66638 | 54.32176 | 12191 ft | 334 kts | 307° |
| 2026-04-27 17:08 | 24.68087 | 54.30135 | 12734 ft | 341 kts | 307° |
| 2026-04-27 17:08 | 24.69552 | 54.28067 | 13359 ft | 345 kts | 307° |
| 2026-04-27 17:08 | 24.71036 | 54.25969 | 13935 ft | 349 kts | 307° |
| 2026-04-27 17:08 | 24.72534 | 54.23854 | 14504 ft | 352 kts | 307° |
| 2026-04-27 17:09 | 24.74047 | 54.21719 | 15080 ft | 355 kts | 306° |
| 2026-04-27 17:09 | 24.75570 | 54.19563 | 15655 ft | 358 kts | 306° |
| 2026-04-27 17:09 | 24.77102 | 54.17392 | 16235 ft | 361 kts | 306° |
| 2026-04-27 17:09 | 24.78648 | 54.15201 | 16804 ft | 364 kts | 305° |
| 2026-04-27 17:10 | 24.80209 | 54.12989 | 17381 ft | 367 kts | 305° |
| 2026-04-27 17:10 | 24.81780 | 54.10757 | 17954 ft | 370 kts | 304° |
| 2026-04-27 17:10 | 24.83359 | 54.08507 | 18457 ft | 372 kts | 303° |
| 2026-04-27 17:10 | 24.84775 | 54.06127 | 18985 ft | 373 kts | 298° |
| 2026-04-27 17:11 | 24.86139 | 54.03698 | 19519 ft | 374 kts | 298° |
| 2026-04-27 17:11 | 24.88883 | 53.98811 | 20624 ft | 376 kts | 298° |
| 2026-04-27 17:11 | 24.90262 | 53.96349 | 21173 ft | 378 kts | 298° |
| 2026-04-27 17:12 | 24.93031 | 53.91403 | 22270 ft | 381 kts | 298° |
| 2026-04-27 17:12 | 24.94422 | 53.88918 | 22814 ft | 382 kts | 298° |
| 2026-04-27 17:12 | 24.95814 | 53.86424 | 23329 ft | 383 kts | 297° |
| 2026-04-27 17:13 | 24.97215 | 53.83911 | 23768 ft | 385 kts | 297° |
| 2026-04-27 17:13 | 24.98617 | 53.81398 | 24182 ft | 386 kts | 298° |
| 2026-04-27 17:13 | 25.00033 | 53.78877 | 24587 ft | 388 kts | 298° |
| 2026-04-27 17:13 | 25.01532 | 53.76385 | 24981 ft | 391 kts | 301° |
| 2026-04-27 17:14 | 25.03103 | 53.73929 | 25369 ft | 393 kts | 302° |
| 2026-04-27 17:14 | 25.04719 | 53.71484 | 25708 ft | 395 kts | 302° |
| 2026-04-27 17:14 | 25.06345 | 53.69045 | 25806 ft | 395 kts | 302° |
| 2026-04-27 17:14 | 25.07963 | 53.66606 | 25829 ft | 394 kts | 302° |
| 2026-04-27 17:15 | 25.09571 | 53.64159 | 25827 ft | 394 kts | 302° |
| 2026-04-27 17:15 | 25.11167 | 53.61705 | 25826 ft | 393 kts | 301° |
| 2026-04-27 17:15 | 25.12777 | 53.59214 | 25826 ft | 393 kts | 301° |
| 2026-04-27 17:15 | 25.14360 | 53.56751 | 25827 ft | 393 kts | 301° |
| 2026-04-27 17:16 | 25.15939 | 53.54289 | 25829 ft | 393 kts | 301° |
| 2026-04-27 17:16 | 25.17521 | 53.51822 | 25828 ft | 393 kts | 301° |
| 2026-04-27 17:16 | 25.19084 | 53.49388 | 25825 ft | 393 kts | 301° |
| 2026-04-27 17:16 | 25.20686 | 53.46895 | 25826 ft | 393 kts | 301° |
| 2026-04-27 17:17 | 25.22271 | 53.44435 | 25825 ft | 393 kts | 301° |
| 2026-04-27 17:17 | 25.23859 | 53.41972 | 25824 ft | 393 kts | 301° |
| 2026-04-27 17:17 | 25.25447 | 53.39509 | 25828 ft | 393 kts | 301° |
| 2026-04-27 17:18 | 25.28617 | 53.34584 | 25827 ft | 393 kts | 301° |
| 2026-04-27 17:18 | 25.30203 | 53.32115 | 25825 ft | 393 kts | 301° |
| 2026-04-27 17:18 | 25.31785 | 53.29649 | 25828 ft | 393 kts | 301° |
| 2026-04-27 17:18 | 25.33368 | 53.27181 | 25829 ft | 393 kts | 301° |
| 2026-04-27 17:19 | 25.34944 | 53.24723 | 25827 ft | 393 kts | 301° |
| 2026-04-27 17:19 | 25.36519 | 53.22259 | 25827 ft | 393 kts | 301° |
| 2026-04-27 17:19 | 25.38095 | 53.19790 | 25824 ft | 392 kts | 301° |
| 2026-04-27 17:19 | 25.39670 | 53.17326 | 25828 ft | 392 kts | 301° |
| 2026-04-27 17:20 | 25.41246 | 53.14863 | 25832 ft | 392 kts | 301° |
| 2026-04-27 17:20 | 25.42821 | 53.12401 | 25831 ft | 392 kts | 301° |
| 2026-04-27 17:20 | 25.44397 | 53.09937 | 25831 ft | 392 kts | 301° |
| 2026-04-27 17:20 | 25.45972 | 53.07474 | 25830 ft | 392 kts | 301° |
| 2026-04-27 17:21 | 25.47551 | 53.05003 | 25832 ft | 392 kts | 301° |
| 2026-04-27 17:21 | 25.49124 | 53.02534 | 25828 ft | 392 kts | 301° |
| 2026-04-27 17:21 | 25.50700 | 53.00058 | 25831 ft | 392 kts | 301° |
| 2026-04-27 17:21 | 25.52270 | 52.97593 | 25829 ft | 393 kts | 301° |
| 2026-04-27 17:22 | 25.53848 | 52.95118 | 25833 ft | 393 kts | 301° |
| 2026-04-27 17:22 | 25.55422 | 52.92645 | 25829 ft | 393 kts | 301° |
| 2026-04-27 17:22 | 25.56914 | 52.90120 | 25834 ft | 390 kts | 295° |
| 2026-04-27 17:22 | 25.58205 | 52.87480 | 25835 ft | 390 kts | 295° |
| 2026-04-27 17:23 | 25.59493 | 52.84844 | 25833 ft | 389 kts | 295° |
| 2026-04-27 17:23 | 25.60781 | 52.82205 | 25835 ft | 389 kts | 295° |
| 2026-04-27 17:23 | 25.62068 | 52.79567 | 25833 ft | 389 kts | 295° |
| 2026-04-27 17:23 | 25.63353 | 52.76926 | 25832 ft | 389 kts | 295° |
| 2026-04-27 17:24 | 25.64640 | 52.74286 | 25832 ft | 388 kts | 295° |
| 2026-04-27 17:24 | 25.65923 | 52.71648 | 25835 ft | 388 kts | 295° |
| 2026-04-27 17:24 | 25.67204 | 52.69011 | 25836 ft | 388 kts | 295° |
| 2026-04-27 17:24 | 25.68482 | 52.66379 | 25837 ft | 388 kts | 295° |
| 2026-04-27 17:25 | 25.69761 | 52.63741 | 25837 ft | 388 kts | 295° |
| 2026-04-27 17:25 | 25.71037 | 52.61106 | 25836 ft | 388 kts | 294° |
| 2026-04-27 17:25 | 25.72313 | 52.58475 | 25834 ft | 388 kts | 294° |
| 2026-04-27 17:25 | 25.73593 | 52.55838 | 25832 ft | 388 kts | 294° |
| 2026-04-27 17:26 | 25.74872 | 52.53208 | 25834 ft | 388 kts | 294° |
| 2026-04-27 17:26 | 25.76152 | 52.50574 | 25833 ft | 388 kts | 294° |
| 2026-04-27 17:26 | 25.77414 | 52.47931 | 25835 ft | 387 kts | 294° |
| 2026-04-27 17:26 | 25.78651 | 52.45283 | 25833 ft | 387 kts | 293° |
| 2026-04-27 17:27 | 25.79878 | 52.42624 | 25836 ft | 387 kts | 293° |
| 2026-04-27 17:27 | 25.81101 | 52.39964 | 25839 ft | 387 kts | 293° |
| 2026-04-27 17:27 | 25.82326 | 52.37304 | 25837 ft | 387 kts | 293° |
| 2026-04-27 17:27 | 25.83550 | 52.34648 | 25838 ft | 387 kts | 293° |
| 2026-04-27 17:28 | 25.84777 | 52.31994 | 25837 ft | 387 kts | 293° |
| 2026-04-27 17:28 | 25.86008 | 52.29336 | 25840 ft | 386 kts | 293° |
| 2026-04-27 17:28 | 25.89204 | 52.24492 | 25837 ft | 394 kts | 308° |
| 2026-04-27 17:29 | 25.91065 | 52.22257 | 25842 ft | 394 kts | 307° |
| 2026-04-27 17:29 | 25.92911 | 52.20032 | 25842 ft | 394 kts | 307° |
| 2026-04-27 17:29 | 25.94766 | 52.17792 | 25840 ft | 394 kts | 307° |
| 2026-04-27 17:29 | 25.96620 | 52.15550 | 25844 ft | 393 kts | 307° |
| 2026-04-27 17:30 | 25.98443 | 52.13349 | 25804 ft | 380 kts | 307° |
| 2026-04-27 17:30 | 26.01878 | 52.09213 | 25264 ft | 349 kts | 307° |
| 2026-04-27 17:30 | 26.03506 | 52.07244 | 24615 ft | 343 kts | 307° |
| 2026-04-27 17:31 | 26.05111 | 52.05297 | 23905 ft | 340 kts | 307° |
| 2026-04-27 17:31 | 26.06711 | 52.03353 | 23245 ft | 341 kts | 307° |
| 2026-04-27 17:31 | 26.08310 | 52.01412 | 22770 ft | 339 kts | 308° |
| 2026-04-27 17:31 | 26.09899 | 51.99481 | 22333 ft | 337 kts | 308° |
| 2026-04-27 17:32 | 26.11477 | 51.97564 | 21911 ft | 335 kts | 308° |
| 2026-04-27 17:32 | 26.14097 | 51.94388 | 21232 ft | 331 kts | 308° |
| 2026-04-27 17:32 | 26.15645 | 51.92511 | 20840 ft | 328 kts | 308° |
| 2026-04-27 17:33 | 26.17182 | 51.90644 | 20451 ft | 326 kts | 308° |
| 2026-04-27 17:33 | 26.18708 | 51.88790 | 20074 ft | 324 kts | 308° |
| 2026-04-27 17:33 | 26.20224 | 51.86947 | 19703 ft | 321 kts | 308° |
| 2026-04-27 17:33 | 26.21728 | 51.85120 | 19339 ft | 319 kts | 309° |
| 2026-04-27 17:34 | 26.23225 | 51.83301 | 18973 ft | 317 kts | 309° |
| 2026-04-27 17:34 | 26.24651 | 51.81444 | 18612 ft | 314 kts | 303° |
| 2026-04-27 17:34 | 26.25828 | 51.79424 | 18273 ft | 309 kts | 296° |
| 2026-04-27 17:34 | 26.26787 | 51.77291 | 18043 ft | 307 kts | 294° |
| 2026-04-27 17:35 | 26.27734 | 51.75159 | 17757 ft | 306 kts | 294° |
| 2026-04-27 17:35 | 26.28681 | 51.73036 | 17475 ft | 305 kts | 294° |
| 2026-04-27 17:35 | 26.29625 | 51.70922 | 17193 ft | 304 kts | 294° |
| 2026-04-27 17:35 | 26.30566 | 51.68815 | 16902 ft | 301 kts | 294° |
| 2026-04-27 17:36 | 26.31478 | 51.66773 | 16643 ft | 287 kts | 294° |
| 2026-04-27 17:36 | 26.32354 | 51.64811 | 16399 ft | 281 kts | 294° |
| 2026-04-27 17:36 | 26.33219 | 51.62874 | 16150 ft | 277 kts | 294° |
| 2026-04-27 17:36 | 26.34075 | 51.60953 | 15907 ft | 276 kts | 294° |
| 2026-04-27 17:37 | 26.34925 | 51.59041 | 15665 ft | 275 kts | 294° |
| 2026-04-27 17:37 | 26.35775 | 51.57132 | 15422 ft | 274 kts | 295° |
| 2026-04-27 17:37 | 26.36625 | 51.55224 | 15182 ft | 274 kts | 295° |
| 2026-04-27 17:37 | 26.37473 | 51.53321 | 14951 ft | 273 kts | 295° |
| 2026-04-27 17:38 | 26.38453 | 51.51513 | 14738 ft | 274 kts | 310° |
| 2026-04-27 17:38 | 26.40001 | 51.50265 | 14714 ft | 281 kts | 335° |
| 2026-04-27 17:38 | 26.41967 | 51.49887 | 14714 ft | 291 kts | 1° |
| 2026-04-27 17:38 | 26.43908 | 51.50578 | 14717 ft | 301 kts | 30° |
| 2026-04-27 17:39 | 26.45349 | 51.52245 | 14713 ft | 309 kts | 60° |
| 2026-04-27 17:39 | 26.45913 | 51.54586 | 14712 ft | 313 kts | 91° |
| 2026-04-27 17:39 | 26.45416 | 51.56898 | 14718 ft | 313 kts | 117° |
| 2026-04-27 17:39 | 26.44447 | 51.59116 | 14718 ft | 314 kts | 118° |
| 2026-04-27 17:40 | 26.43485 | 51.61306 | 14719 ft | 315 kts | 117° |
| 2026-04-27 17:40 | 26.42520 | 51.63502 | 14713 ft | 315 kts | 117° |
| 2026-04-27 17:40 | 26.41372 | 51.65558 | 14703 ft | 310 kts | 139° |
| 2026-04-27 17:40 | 26.39588 | 51.66807 | 14709 ft | 300 kts | 168° |
| 2026-04-27 17:41 | 26.37560 | 51.66959 | 14702 ft | 290 kts | 195° |
| 2026-04-27 17:41 | 26.35741 | 51.66096 | 14406 ft | 281 kts | 223° |
| 2026-04-27 17:41 | 26.34520 | 51.64475 | 14124 ft | 271 kts | 246° |
| 2026-04-27 17:41 | 26.34040 | 51.62479 | 13816 ft | 267 kts | 270° |
| 2026-04-27 17:42 | 26.34354 | 51.60457 | 13475 ft | 266 kts | 291° |
| 2026-04-27 17:42 | 26.35106 | 51.58567 | 13120 ft | 267 kts | 294° |
| 2026-04-27 17:42 | 26.35915 | 51.56708 | 12801 ft | 266 kts | 295° |
| 2026-04-27 17:42 | 26.36742 | 51.54865 | 12484 ft | 265 kts | 295° |
| 2026-04-27 17:43 | 26.37565 | 51.53029 | 12173 ft | 264 kts | 295° |
| 2026-04-27 17:43 | 26.38578 | 51.51338 | 11868 ft | 264 kts | 315° |
| 2026-04-27 17:43 | 26.40148 | 51.50282 | 11557 ft | 268 kts | 340° |
| 2026-04-27 17:43 | 26.42011 | 51.50114 | 11230 ft | 275 kts | 7° |
| 2026-04-27 17:44 | 26.43783 | 51.50942 | 10890 ft | 282 kts | 35° |
| 2026-04-27 17:44 | 26.45014 | 51.52646 | 10560 ft | 287 kts | 65° |
| 2026-04-27 17:44 | 26.45366 | 51.54826 | 10222 ft | 289 kts | 96° |
| 2026-04-27 17:44 | 26.44818 | 51.56970 | 10030 ft | 289 kts | 120° |
| 2026-04-27 17:45 | 26.43592 | 51.58722 | 10029 ft | 288 kts | 143° |
| 2026-04-27 17:45 | 26.41873 | 51.59806 | 10034 ft | 283 kts | 167° |
| 2026-04-27 17:45 | 26.39953 | 51.60047 | 10034 ft | 276 kts | 191° |
| 2026-04-27 17:45 | 26.38144 | 51.59471 | 10035 ft | 269 kts | 212° |
| 2026-04-27 17:46 | 26.36684 | 51.58231 | 10031 ft | 263 kts | 232° |
| 2026-04-27 17:46 | 26.35741 | 51.56521 | 10030 ft | 258 kts | 252° |
| 2026-04-27 17:46 | 26.35404 | 51.54577 | 10034 ft | 256 kts | 271° |
| 2026-04-27 17:46 | 26.35696 | 51.52630 | 10033 ft | 255 kts | 290° |
| 2026-04-27 17:47 | 26.36411 | 51.50814 | 10033 ft | 256 kts | 294° |
| 2026-04-27 17:47 | 26.36906 | 51.49589 | 10030 ft | 256 kts | 294° |
| 2026-04-27 17:47 | 26.37874 | 51.47184 | 10035 ft | 257 kts | 293° |
| 2026-04-27 17:47 | 26.38602 | 51.45369 | 10033 ft | 257 kts | 293° |
| 2026-04-27 17:48 | 26.39329 | 51.43554 | 10032 ft | 257 kts | 293° |
| 2026-04-27 17:48 | 26.40060 | 51.41735 | 10036 ft | 257 kts | 293° |
| 2026-04-27 17:48 | 26.40792 | 51.39917 | 10032 ft | 257 kts | 293° |
| 2026-04-27 17:48 | 26.41523 | 51.38092 | 10031 ft | 257 kts | 293° |
| 2026-04-27 17:49 | 26.42253 | 51.36271 | 10033 ft | 257 kts | 293° |
| 2026-04-27 17:49 | 26.42982 | 51.34452 | 10033 ft | 257 kts | 293° |
| 2026-04-27 17:49 | 26.43709 | 51.32635 | 9840 ft | 255 kts | 293° |
| 2026-04-27 17:49 | 26.44417 | 51.30824 | 9499 ft | 254 kts | 289° |
| 2026-04-27 17:50 | 26.44905 | 51.28942 | 9143 ft | 252 kts | 280° |
| 2026-04-27 17:50 | 26.45028 | 51.25059 | 8409 ft | 251 kts | 263° |
| 2026-04-27 17:50 | 26.44661 | 51.23135 | 8086 ft | 250 kts | 253° |
| 2026-04-27 17:51 | 26.44041 | 51.21327 | 7935 ft | 249 kts | 248° |
| 2026-04-27 17:51 | 26.43381 | 51.19566 | 7901 ft | 244 kts | 249° |
| 2026-04-27 17:51 | 26.42741 | 51.17841 | 7792 ft | 232 kts | 249° |
| 2026-04-27 17:51 | 26.42128 | 51.16192 | 7531 ft | 228 kts | 249° |
| 2026-04-27 17:52 | 26.41527 | 51.14565 | 7207 ft | 227 kts | 249° |
| 2026-04-27 17:52 | 26.40929 | 51.12941 | 6884 ft | 226 kts | 249° |
| 2026-04-27 17:52 | 26.40332 | 51.11324 | 6561 ft | 225 kts | 249° |
| 2026-04-27 17:52 | 26.39937 | 51.10256 | 6351 ft | 224 kts | 249° |
| 2026-04-27 17:53 | 26.39147 | 51.08119 | 6042 ft | 221 kts | 249° |
| 2026-04-27 17:53 | 26.38555 | 51.06524 | 6028 ft | 223 kts | 248° |
| 2026-04-27 17:53 | 26.37958 | 51.04922 | 6032 ft | 224 kts | 248° |
| 2026-04-27 17:53 | 26.37357 | 51.03315 | 6029 ft | 224 kts | 248° |
| 2026-04-27 17:54 | 26.36776 | 51.01700 | 6027 ft | 224 kts | 255° |
| 2026-04-27 17:54 | 26.36619 | 50.99986 | 6028 ft | 224 kts | 270° |
| 2026-04-27 17:54 | 26.36616 | 50.98258 | 5808 ft | 222 kts | 269° |
| 2026-04-27 17:54 | 26.36614 | 50.96536 | 5467 ft | 222 kts | 269° |
| 2026-04-27 17:55 | 26.36614 | 50.94825 | 5200 ft | 218 kts | 269° |
| 2026-04-27 17:55 | 26.36615 | 50.93172 | 5075 ft | 208 kts | 269° |
| 2026-04-27 17:55 | 26.36616 | 50.91590 | 4928 ft | 201 kts | 268° |
| 2026-04-27 17:55 | 26.36616 | 50.90046 | 4684 ft | 198 kts | 268° |
| 2026-04-27 17:56 | 26.36614 | 50.88510 | 4405 ft | 198 kts | 268° |
| 2026-04-27 17:56 | 26.36612 | 50.86970 | 4119 ft | 198 kts | 268° |
| 2026-04-27 17:56 | 26.36610 | 50.85430 | 3829 ft | 199 kts | 267° |
| 2026-04-27 17:56 | 26.36608 | 50.83885 | 3550 ft | 199 kts | 267° |
| 2026-04-27 17:57 | 26.36606 | 50.82340 | 3273 ft | 200 kts | 267° |
| 2026-04-27 17:57 | 26.36603 | 50.80792 | 3059 ft | 199 kts | 266° |
| 2026-04-27 17:57 | 26.36599 | 50.79242 | 3009 ft | 200 kts | 266° |
| 2026-04-27 17:57 | 26.36597 | 50.77684 | 3013 ft | 201 kts | 266° |
| 2026-04-27 17:58 | 26.36595 | 50.76122 | 3013 ft | 202 kts | 266° |
| 2026-04-27 17:58 | 26.36593 | 50.74556 | 3010 ft | 202 kts | 266° |
| 2026-04-27 17:58 | 26.36625 | 50.72993 | 3008 ft | 203 kts | 272° |
| 2026-04-27 17:58 | 26.36878 | 50.71435 | 3009 ft | 206 kts | 282° |
| 2026-04-27 17:59 | 26.37372 | 50.69935 | 3008 ft | 207 kts | 292° |
| 2026-04-27 17:59 | 26.38090 | 50.68534 | 3014 ft | 209 kts | 299° |
| 2026-04-27 17:59 | 26.38878 | 50.67172 | 3007 ft | 209 kts | 299° |
| 2026-04-27 17:59 | 26.39664 | 50.65803 | 3010 ft | 210 kts | 299° |
| 2026-04-27 18:00 | 26.40450 | 50.64429 | 3007 ft | 209 kts | 299° |
| 2026-04-27 18:00 | 26.41233 | 50.63063 | 3013 ft | 209 kts | 299° |
| 2026-04-27 18:00 | 26.42017 | 50.61698 | 3014 ft | 209 kts | 299° |
| 2026-04-27 18:00 | 26.42801 | 50.60335 | 3012 ft | 209 kts | 298° |
| 2026-04-27 18:01 | 26.43586 | 50.58968 | 3015 ft | 209 kts | 298° |
| 2026-04-27 18:01 | 26.44368 | 50.57604 | 3008 ft | 209 kts | 298° |
| 2026-04-27 18:01 | 26.45136 | 50.56226 | 3011 ft | 208 kts | 291° |
| 2026-04-27 18:01 | 26.45370 | 50.54705 | 3015 ft | 197 kts | 255° |
| 2026-04-27 18:02 | 26.44744 | 50.53402 | 3017 ft | 192 kts | 222° |
| 2026-04-27 18:02 | 26.43700 | 50.52469 | 3015 ft | 193 kts | 214° |
| 2026-04-27 18:02 | 26.42600 | 50.51619 | 3012 ft | 192 kts | 213° |
| 2026-04-27 18:02 | 26.41493 | 50.50784 | 3011 ft | 192 kts | 213° |
| 2026-04-27 18:03 | 26.40382 | 50.49953 | 3006 ft | 192 kts | 213° |
| 2026-04-27 18:03 | 26.39274 | 50.49120 | 3012 ft | 192 kts | 213° |
| 2026-04-27 18:03 | 26.38514 | 50.48581 | 3006 ft | 192 kts | 205° |
| 2026-04-27 18:03 | 26.36786 | 50.48319 | 2953 ft | 195 kts | 171° |
| 2026-04-27 18:04 | 26.35921 | 50.48601 | 2774 ft | 197 kts | 154° |
| 2026-04-27 18:04 | 26.34929 | 50.49678 | 2491 ft | 202 kts | 126° |
| 2026-04-27 18:04 | 26.34185 | 50.51006 | 2220 ft | 200 kts | 125° |
| 2026-04-27 18:04 | 26.33467 | 50.52275 | 1936 ft | 190 kts | 125° |
| 2026-04-27 18:05 | 26.32773 | 50.53488 | 1693 ft | 177 kts | 126° |
| 2026-04-27 18:05 | 26.32138 | 50.54593 | 1476 ft | 162 kts | 126° |
| 2026-04-27 18:05 | 26.31559 | 50.55599 | 1296 ft | 148 kts | 125° |
| 2026-04-27 18:05 | 26.31013 | 50.56546 | 1107 ft | 144 kts | 125° |
| 2026-04-27 18:06 | 26.30472 | 50.57484 | 929 ft | 144 kts | 124° |
| 2026-04-27 18:06 | 26.29929 | 50.58425 | 756 ft | 144 kts | 123° |
| 2026-04-27 18:06 | 26.29381 | 50.59370 | 597 ft | 145 kts | 123° |
| 2026-04-27 18:06 | 26.28833 | 50.60321 | 413 ft | 146 kts | 123° |
| 2026-04-27 18:07 | 26.28289 | 50.61269 | 219 ft | 146 kts | 122° |
| 2026-04-27 18:07 | 26.27744 | 50.62216 | 32 ft | 140 kts | 121° |
| 2026-04-27 18:07 | 26.27293 | 50.63000 | 16 ft | 85 kts | 123° |
| 2026-04-27 18:07 | 26.27104 | 50.63329 | 14 ft | 36 kts | 123° |
| 2026-04-27 18:08 | 26.27019 | 50.63471 | 16 ft | 16 kts | 128° |
| 2026-04-27 18:08 | 26.26934 | 50.63464 | 15 ft | 10 kts | 215° |
| 2026-04-27 18:08 | 26.26903 | 50.63440 | 17 ft | 3 kts | 213° |
| 2026-04-27 18:08 | 26.26892 | 50.63432 | 18 ft | 6 kts | 213° |
| 2026-04-27 18:09 | 26.26860 | 50.63409 | 19 ft | 4 kts | 213° |
| 2026-04-27 18:09 | 26.26838 | 50.63393 | 20 ft | 4 kts | 213° |
| 2026-04-27 18:09 | 26.26817 | 50.63377 | 22 ft | 3 kts | 213° |
| 2026-04-27 18:09 | 26.26789 | 50.63352 | 21 ft | 8 kts | 234° |
| 2026-04-27 18:10 | 26.26783 | 50.63300 | 21 ft | 6 kts | 255° |
| 2026-04-27 18:10 | 26.26756 | 50.63270 | 21 ft | 5 kts | 212° |
| 2026-04-27 18:10 | 26.26727 | 50.63249 | 21 ft | 3 kts | 213° |
| 2026-04-27 18:10 | 26.26725 | 50.63248 | 21 ft | 0 kts | 213° |